首页
METAR-TAF:

METAR-TAF

机场 :

费尔班克斯国际机场

費爾班克斯, 阿拉斯加州, 美国

纬度: 64-48-14N, 经度: 147-52-34W, 海拔: 132米

当前天气观测

该预报发布于27分钟前的13:53 UTC
风速4节,风向北转东北
温度 -9°C
湿度 85%
气压 1000 hPa
能見度: 12.9公里
多云层高于1000英尺
阴天层高于3300英尺
小雪

METAR: PAFA 201353Z 03004KT 8SM -SN BKN010 OVC033 M09/M11 A2954 RMK AO2 SLP013 T10891106 $

时间: 05:20 (14:20 UTC)

预报

该预报发布于2小时和47分钟前的11:33 UTC
预报有效从20日的 12点(UTC)到 21日的 18点(UTC)
风速3节,风向多变
能見度: 4.8公里
阴天层高于500英尺
小雪, 轻雾, 碎片雾
从 20日的 1500点(UTC)
风速3节,风向多变
能見度: 8.0公里
多云层高于800英尺
阴天层高于3000英尺
小雪, 轻雾, 碎片雾
从 20日的 1800点(UTC)
风速3节,风向多变
能見度: 10公里
多云层高于3000英尺
阴天层高于5000英尺
附近有阵雨
从 21日的 0300点(UTC)
风速3节,风向多变
能見度: 10公里
阴天层高于5000英尺

TAF: PAFA 201133Z 2012/2118 VRB03KT 3SM -SN BR BCFG OVC005 FM201500 VRB03KT 5SM -SN BR BCFG BKN008 OVC030 FM201800 VRB03KT P6SM VCSH BKN030 OVC050 FM210300 VRB03KT P6SM OVC050

超过4000个机场的气象观测和天气预报(METAR&TAF报告)。

可查询的气象台以黄色和红色小点在地图上表示。

将鼠标移到小点上方,可查看气象台名称。

然后点击查看天气观测和预报。

如需切换地图:点击带黑十字的绿色按钮放大地图;点击带横线的绿色按钮缩小地图;或者点击绿色箭头查看邻近地区的地图。


METAR-TAF: